createdAt,value
2019-04-19T00:01:22.670Z,15.50
2019-04-19T00:03:53.294Z,15.40
2019-04-19T00:06:31.621Z,15.40
2019-04-19T00:09:13.501Z,15.40
2019-04-19T00:11:37.638Z,15.40
2019-04-19T00:14:00.325Z,15.30
2019-04-19T00:16:29.899Z,15.30
2019-04-19T00:19:19.719Z,15.30
2019-04-19T00:21:54.522Z,15.20
2019-04-19T00:24:01.750Z,15.20
2019-04-19T00:26:33.863Z,15.10
2019-04-19T00:29:06.784Z,15.10
2019-04-19T00:31:45.228Z,15.10
2019-04-19T00:34:06.257Z,15.00
2019-04-19T00:36:36.342Z,15.00
2019-04-19T00:39:23.730Z,15.00
2019-04-19T00:42:01.533Z,15.00
2019-04-19T00:44:43.078Z,15.00
2019-04-19T00:47:06.718Z,15.00
2019-04-19T00:49:30.912Z,15.00
2019-04-19T00:52:05.470Z,14.90
2019-04-19T00:54:31.992Z,14.90
2019-04-19T00:57:03.374Z,14.80
2019-04-19T00:59:35.794Z,14.80
2019-04-19T01:02:03.236Z,14.70
2019-04-19T01:04:32.776Z,14.70
2019-04-19T01:07:03.492Z,14.70
2019-04-19T01:09:44.222Z,14.70
2019-04-19T01:12:15.045Z,14.70
2019-04-19T01:14:40.431Z,14.70
2019-04-19T01:17:16.346Z,14.70
2019-04-19T01:19:40.893Z,14.60
2019-04-19T01:22:11.825Z,14.60
2019-04-19T01:24:41.317Z,14.50
2019-04-19T01:27:08.858Z,14.50
2019-04-19T01:29:46.130Z,14.50
2019-04-19T01:32:13.658Z,14.40
2019-04-19T01:34:41.394Z,14.40
2019-04-19T01:37:16.146Z,14.40
2019-04-19T01:40:02.924Z,14.40
2019-04-19T01:42:32.294Z,14.40
2019-04-19T01:45:18.922Z,14.40
2019-04-19T01:47:49.818Z,14.40
2019-04-19T01:50:38.347Z,14.40
2019-04-19T01:53:09.596Z,14.30
2019-04-19T01:55:25.815Z,14.30
2019-04-19T01:57:54.869Z,14.30
2019-04-19T02:00:31.447Z,14.30
2019-04-19T02:02:56.695Z,14.30
2019-04-19T02:05:23.935Z,14.20
2019-04-19T02:07:58.953Z,14.20
2019-04-19T02:11:09.987Z,14.20
2019-04-19T02:13:38.292Z,14.20
2019-04-19T02:16:10.983Z,14.30
2019-04-19T02:18:35.434Z,14.30
2019-04-19T02:21:04.916Z,14.30
2019-04-19T02:23:41.806Z,14.20
2019-04-19T02:26:12.203Z,14.30
2019-04-19T02:28:40.729Z,14.30
2019-04-19T02:31:27.190Z,14.30
2019-04-19T02:34:16.270Z,14.30
2019-04-19T02:36:48.366Z,14.20
2019-04-19T02:39:17.904Z,14.20
2019-04-19T02:44:10.811Z,14.10
2019-04-19T02:46:52.487Z,14.10
2019-04-19T02:51:46.422Z,14.00
2019-04-19T02:54:25.663Z,14.00
2019-04-19T02:57:22.448Z,14.00
2019-04-19T03:05:14.435Z,14.00
2019-04-19T03:07:21.727Z,14.00
2019-04-19T03:09:52.013Z,14.00
2019-04-19T03:12:53.914Z,14.00
2019-04-19T03:15:07.600Z,14.00
2019-04-19T03:17:43.335Z,14.00
2019-04-19T03:20:11.872Z,14.00
2019-04-19T03:22:40.830Z,14.00
2019-04-19T03:25:15.274Z,14.00
2019-04-19T03:27:37.620Z,14.10
2019-04-19T03:30:20.734Z,14.10
2019-04-19T03:33:05.120Z,14.10
2019-04-19T03:35:17.937Z,14.10
2019-04-19T03:38:08.813Z,14.10
2019-04-19T03:40:23.532Z,14.10
2019-04-19T03:43:10.625Z,14.20
2019-04-19T03:45:37.921Z,14.20
2019-04-19T03:50:37.740Z,14.20
2019-04-19T03:53:15.457Z,14.20
2019-04-19T03:55:43.148Z,14.20
2019-04-19T03:58:03.199Z,14.20
2019-04-19T04:00:26.415Z,14.20
2019-04-19T04:02:56.398Z,14.10
2019-04-19T04:05:29.388Z,14.10
2019-04-19T04:08:04.371Z,14.10
2019-04-19T04:10:42.876Z,14.10
2019-04-19T04:13:25.505Z,14.10
2019-04-19T04:16:09.835Z,14.00
2019-04-19T04:18:26.065Z,14.00
2019-04-19T04:20:57.701Z,14.00
2019-04-19T04:23:32.265Z,14.00
2019-04-19T04:26:04.858Z,13.90
2019-04-19T04:28:42.619Z,13.90
2019-04-19T04:31:10.018Z,13.90
2019-04-19T04:33:42.352Z,13.90
2019-04-19T04:36:20.864Z,13.90
2019-04-19T04:38:38.501Z,13.90
2019-04-19T04:41:08.492Z,13.90
2019-04-19T04:43:48.295Z,13.90
2019-04-19T04:46:34.081Z,13.90
2019-04-19T04:49:25.642Z,13.90
2019-04-19T04:51:47.972Z,14.00
2019-04-19T04:54:06.129Z,14.00
2019-04-19T04:56:53.022Z,13.90
2019-04-19T04:59:15.710Z,13.90
2019-04-19T05:01:51.570Z,13.90
2019-04-19T05:04:27.209Z,13.90
2019-04-19T05:07:08.364Z,13.80
2019-04-19T05:09:32.680Z,13.80
2019-04-19T05:12:12.689Z,13.80
2019-04-19T05:14:38.898Z,13.80
2019-04-19T05:17:22.258Z,13.70
2019-04-19T05:19:46.738Z,13.70
2019-04-19T05:22:07.834Z,13.70
2019-04-19T05:24:51.538Z,13.70
2019-04-19T05:27:15.312Z,13.70
2019-04-19T05:29:34.534Z,13.70
2019-04-19T05:32:04.833Z,13.80
2019-04-19T05:34:49.760Z,13.90
2019-04-19T05:37:13.987Z,14.00
2019-04-19T05:39:54.334Z,14.10
2019-04-19T05:42:44.624Z,14.20
2019-04-19T05:45:26.249Z,14.20
2019-04-19T05:47:41.139Z,14.30
2019-04-19T05:50:23.100Z,14.40
2019-04-19T05:52:48.186Z,14.40
2019-04-19T05:55:00.684Z,14.50
2019-04-19T05:57:46.445Z,14.60
2019-04-19T06:00:16.079Z,14.60
2019-04-19T06:02:43.618Z,14.70
2019-04-19T06:05:31.606Z,14.70
2019-04-19T06:07:53.035Z,14.80
2019-04-19T06:10:10.934Z,14.90
2019-04-19T06:12:40.861Z,14.90
2019-04-19T06:15:34.305Z,15.00
2019-04-19T06:18:00.469Z,15.10
2019-04-19T06:20:30.525Z,15.10
2019-04-19T06:23:07.078Z,15.20
2019-04-19T06:25:47.635Z,15.20
2019-04-19T06:30:41.078Z,15.30
2019-04-19T06:33:15.673Z,15.40
2019-04-19T06:35:34.319Z,15.40
2019-04-19T06:37:54.584Z,15.50
2019-04-19T06:40:29.407Z,15.50
2019-04-19T06:43:06.015Z,15.50
2019-04-19T06:45:42.100Z,15.50
2019-04-19T06:48:05.423Z,15.60
2019-04-19T06:50:34.742Z,15.70
2019-04-19T06:52:59.751Z,15.70
2019-04-19T06:55:33.585Z,15.70
2019-04-19T06:58:07.585Z,15.80
2019-04-19T07:00:45.147Z,15.80
2019-04-19T07:03:02.624Z,15.90
2019-04-19T07:05:45.460Z,16.00
2019-04-19T07:08:47.329Z,16.00
2019-04-19T07:10:56.330Z,16.10
2019-04-19T07:13:21.437Z,16.10
2019-04-19T07:16:04.581Z,16.10
2019-04-19T07:18:24.858Z,16.20
2019-04-19T07:21:01.911Z,16.20
2019-04-19T07:23:33.176Z,16.30
2019-04-19T07:26:06.887Z,16.30
2019-04-19T07:28:17.325Z,16.30
2019-04-19T07:30:49.137Z,16.40
2019-04-19T07:33:26.090Z,16.40
2019-04-19T07:36:07.883Z,16.40
2019-04-19T07:38:33.006Z,16.50
2019-04-19T07:41:05.945Z,16.60
2019-04-19T07:43:46.040Z,16.60
2019-04-19T07:46:26.527Z,16.70
2019-04-19T07:48:41.176Z,16.70
2019-04-19T07:51:18.675Z,16.80
2019-04-19T07:53:46.274Z,16.80
2019-04-19T07:56:21.942Z,16.80
2019-04-19T07:59:02.831Z,16.90
2019-04-19T08:01:45.937Z,16.90
2019-04-19T08:04:17.767Z,17.00
2019-04-19T08:09:20.267Z,17.10
2019-04-19T08:29:06.824Z,17.40
2019-04-19T08:31:27.507Z,17.50
2019-04-19T08:33:56.998Z,17.50
2019-04-19T08:36:33.112Z,17.50
2019-04-19T08:39:17.087Z,17.60
2019-04-19T08:41:46.224Z,17.60
2019-04-19T08:44:18.151Z,17.70
2019-04-19T08:46:32.924Z,17.80
2019-04-19T08:49:06.286Z,17.90
2019-04-19T08:51:38.964Z,18.10
2019-04-19T08:54:29.757Z,18.10
2019-04-19T08:56:50.638Z,18.20
2019-04-19T08:59:36.138Z,18.30
2019-04-19T09:02:00.997Z,18.40
2019-04-19T09:04:33.276Z,18.50
2019-04-19T09:09:35.517Z,18.60
2019-04-19T09:12:07.155Z,18.70
2019-04-19T09:14:36.643Z,18.70
2019-04-19T09:17:12.882Z,18.80
2019-04-19T09:19:57.391Z,18.80
2019-04-19T09:22:07.344Z,18.80
2019-04-19T09:24:31.122Z,18.90
2019-04-19T09:27:05.956Z,19.00
2019-04-19T09:29:45.047Z,19.10
2019-04-19T09:32:03.539Z,19.10
2019-04-19T09:34:27.999Z,19.20
2019-04-19T09:37:06.956Z,19.20
2019-04-19T09:39:41.468Z,19.30
2019-04-19T09:42:03.033Z,19.30
2019-04-19T09:44:39.393Z,19.30
2019-04-19T09:47:03.934Z,19.40
2019-04-19T09:49:50.170Z,19.40
2019-04-19T09:52:27.879Z,19.40
2019-04-19T09:55:01.949Z,19.60
2019-04-19T09:57:25.352Z,19.60
2019-04-19T09:59:39.094Z,19.60
2019-04-19T10:02:10.932Z,19.70
2019-04-19T10:04:40.520Z,19.80
2019-04-19T10:07:11.094Z,19.80
2019-04-19T10:09:40.845Z,19.90
2019-04-19T10:12:11.324Z,19.90
2019-04-19T10:14:41.682Z,20.00
2019-04-19T10:17:14.004Z,20.00
2019-04-19T10:19:44.460Z,20.10
2019-04-19T10:22:14.653Z,20.20
2019-04-19T10:24:45.167Z,20.20
2019-04-19T10:27:17.157Z,20.30
2019-04-19T10:29:48.727Z,20.30
2019-04-19T10:32:20.181Z,20.40
2019-04-19T10:34:50.368Z,20.40
2019-04-19T10:37:20.358Z,20.50
2019-04-19T10:39:51.906Z,20.60
2019-04-19T10:42:21.425Z,20.60
2019-04-19T10:44:52.089Z,20.70
2019-04-19T10:47:22.787Z,20.70
2019-04-19T10:49:59.655Z,20.70
2019-04-19T10:52:26.444Z,20.70
2019-04-19T10:54:57.151Z,20.60
2019-04-19T10:57:27.558Z,20.70
2019-04-19T11:00:00.990Z,20.80
2019-04-19T11:02:34.037Z,20.80
2019-04-19T11:05:05.136Z,20.90
2019-04-19T11:07:35.223Z,21.00
2019-04-19T11:10:07.396Z,21.00
2019-04-19T11:12:36.815Z,21.00
2019-04-19T11:15:06.887Z,21.00
2019-04-19T11:17:38.106Z,21.00
2019-04-19T11:20:22.807Z,21.10
2019-04-19T11:22:39.852Z,21.20
2019-04-19T11:25:10.259Z,21.30
2019-04-19T11:27:39.652Z,21.30
2019-04-19T11:30:10.908Z,21.40
2019-04-19T11:32:44.648Z,21.40
2019-04-19T11:35:14.393Z,21.40
2019-04-19T11:37:44.809Z,21.50
2019-04-19T11:40:15.299Z,21.50
2019-04-19T11:42:45.582Z,21.70
2019-04-19T11:45:15.668Z,21.70
2019-04-19T11:47:45.154Z,21.80
2019-04-19T11:50:15.648Z,21.90
2019-04-19T11:52:48.118Z,21.90
2019-04-19T11:55:18.636Z,21.80
2019-04-19T11:57:50.335Z,21.80
2019-04-19T12:00:24.241Z,21.90
2019-04-19T12:02:56.059Z,21.90
2019-04-19T12:05:29.195Z,21.90
2019-04-19T12:07:56.794Z,21.90
2019-04-19T12:10:30.421Z,22.00
2019-04-19T12:12:59.273Z,22.00
2019-04-19T12:15:32.551Z,22.10
2019-04-19T12:18:02.342Z,22.10
2019-04-19T12:20:31.543Z,22.20
2019-04-19T12:23:01.974Z,22.20
2019-04-19T12:25:31.375Z,22.10
2019-04-19T12:28:01.621Z,22.10
2019-04-19T12:30:32.090Z,22.10
2019-04-19T12:33:01.560Z,22.20
2019-04-19T12:35:31.505Z,22.20
2019-04-19T12:38:01.988Z,22.30
2019-04-19T12:40:33.859Z,22.40
2019-04-19T12:43:04.202Z,22.50
2019-04-19T12:45:33.624Z,22.50
2019-04-19T12:48:02.925Z,22.50
2019-04-19T12:50:35.374Z,22.60
2019-04-19T12:53:04.169Z,22.60
2019-04-19T12:55:33.612Z,22.70
2019-04-19T12:58:04.077Z,22.70
2019-04-19T13:00:38.615Z,22.70
2019-04-19T13:03:09.768Z,22.70
2019-04-19T13:05:41.650Z,22.70
2019-04-19T13:08:11.542Z,22.70
2019-04-19T13:10:40.903Z,22.80
2019-04-19T13:13:11.886Z,22.90
2019-04-19T13:15:42.567Z,22.90
2019-04-19T13:18:12.138Z,23.00
2019-04-19T13:20:41.987Z,23.00
2019-04-19T13:23:12.471Z,23.10
2019-04-19T13:25:41.895Z,23.10
2019-04-19T13:28:11.326Z,23.10
2019-04-19T13:30:46.108Z,23.10
2019-04-19T13:33:12.486Z,23.10
2019-04-19T13:35:43.481Z,23.10
2019-04-19T13:38:23.559Z,23.20
2019-04-19T13:41:12.743Z,23.30
2019-04-19T13:43:42.735Z,23.30
2019-04-19T13:46:12.782Z,23.40
2019-04-19T13:48:43.026Z,23.40
2019-04-19T13:51:12.496Z,23.40
2019-04-19T13:53:42.619Z,23.40
2019-04-19T13:56:12.908Z,23.40
2019-04-19T13:58:43.351Z,23.40
2019-04-19T14:01:12.713Z,23.50
2019-04-19T14:03:43.493Z,23.50
2019-04-19T14:06:13.051Z,23.50
2019-04-19T14:08:42.857Z,23.60
2019-04-19T14:11:13.117Z,23.60
2019-04-19T14:13:48.660Z,23.60
2019-04-19T14:16:14.649Z,23.60
2019-04-19T14:18:44.697Z,23.60
2019-04-19T14:21:14.885Z,23.70
2019-04-19T14:23:45.769Z,23.70
2019-04-19T14:26:16.317Z,23.70
2019-04-19T14:28:47.378Z,23.80
2019-04-19T14:31:16.768Z,23.80
2019-04-19T14:33:46.560Z,23.80
2019-04-19T14:36:17.815Z,23.90
2019-04-19T14:38:47.841Z,24.00
2019-04-19T14:41:17.900Z,24.00
2019-04-19T14:43:48.120Z,24.00
2019-04-19T14:46:18.661Z,24.00
2019-04-19T14:48:49.094Z,24.00
2019-04-19T14:51:25.848Z,24.00
2019-04-19T14:53:49.748Z,24.10
2019-04-19T14:56:19.608Z,24.10
2019-04-19T14:58:48.900Z,24.10
2019-04-19T15:01:22.592Z,24.10
2019-04-19T15:04:06.606Z,24.20
2019-04-19T15:06:36.203Z,24.30
2019-04-19T15:09:07.935Z,24.30
2019-04-19T15:11:37.467Z,24.40
2019-04-19T15:14:06.699Z,24.40
2019-04-19T15:16:39.214Z,24.50
2019-04-19T15:19:06.908Z,24.60
2019-04-19T15:21:36.595Z,24.60
2019-04-19T15:24:12.473Z,24.70
2019-04-19T15:26:42.831Z,24.80
2019-04-19T15:29:13.236Z,24.80
2019-04-19T15:31:42.584Z,24.80
2019-04-19T15:34:11.870Z,24.80
2019-04-19T15:36:41.802Z,24.80
2019-04-19T15:39:11.925Z,24.90
2019-04-19T15:41:42.189Z,25.00
2019-04-19T15:44:12.699Z,25.10
2019-04-19T15:46:44.009Z,25.20
2019-04-19T15:49:13.359Z,25.30
2019-04-19T15:51:43.200Z,25.40
2019-04-19T15:54:14.230Z,25.50
2019-04-19T15:56:44.601Z,25.50
2019-04-19T15:59:15.334Z,25.60
2019-04-19T16:01:50.239Z,25.60
2019-04-19T16:04:29.490Z,25.60
2019-04-19T16:07:05.993Z,25.60
2019-04-19T16:09:43.282Z,25.70
2019-04-19T16:12:15.429Z,25.80
2019-04-19T16:14:45.974Z,26.00
2019-04-19T16:17:15.878Z,26.40
2019-04-19T16:19:45.208Z,27.00
2019-04-19T16:22:14.527Z,27.70
2019-04-19T16:24:45.090Z,28.70
2019-04-19T16:27:15.417Z,29.20
2019-04-19T16:29:49.316Z,29.60
2019-04-19T16:32:16.847Z,30.30
2019-04-19T16:34:47.011Z,30.90
2019-04-19T16:37:16.836Z,31.90
2019-04-19T16:39:46.214Z,32.70
2019-04-19T16:42:16.719Z,33.40
2019-04-19T16:44:46.079Z,34.00
2019-04-19T16:47:17.369Z,34.30
2019-04-19T16:49:46.828Z,34.80
2019-04-19T16:52:18.498Z,35.20
2019-04-19T16:54:50.202Z,35.20
2019-04-19T16:57:25.125Z,35.30
2019-04-19T16:59:52.232Z,35.00
2019-04-19T17:02:22.743Z,34.60
2019-04-19T17:04:52.695Z,34.50
2019-04-19T17:07:22.665Z,34.40
2019-04-19T17:09:52.243Z,34.30
2019-04-19T17:12:22.517Z,34.20
2019-04-19T17:14:54.802Z,33.90
2019-04-19T17:17:26.749Z,33.70
2019-04-19T17:19:57.768Z,33.40
2019-04-19T17:22:37.148Z,32.80
2019-04-19T17:25:08.899Z,32.40
2019-04-19T17:27:41.086Z,32.30
2019-04-19T17:30:14.428Z,32.40
2019-04-19T17:32:44.285Z,32.50
2019-04-19T17:35:16.425Z,32.40
2019-04-19T17:37:47.871Z,32.20
2019-04-19T17:40:18.554Z,31.90
2019-04-19T17:42:48.900Z,31.90
2019-04-19T17:45:19.919Z,31.90
2019-04-19T17:47:50.326Z,32.10
2019-04-19T17:50:20.664Z,32.10
2019-04-19T17:52:50.680Z,32.10
2019-04-19T17:55:27.380Z,32.10
2019-04-19T17:57:51.497Z,31.90
2019-04-19T18:00:22.092Z,31.50
2019-04-19T18:02:51.379Z,31.20
2019-04-19T18:05:20.599Z,30.80
2019-04-19T18:07:52.029Z,30.20
2019-04-19T18:10:23.192Z,29.60
2019-04-19T18:12:52.947Z,28.80
2019-04-19T18:15:23.585Z,28.00
2019-04-19T18:17:55.574Z,27.30
2019-04-19T18:20:25.265Z,26.60
2019-04-19T18:23:04.925Z,25.90
2019-04-19T18:25:32.058Z,25.30
2019-04-19T18:27:58.544Z,24.80
2019-04-19T18:30:29.422Z,24.30
2019-04-19T18:33:00.487Z,23.90
2019-04-19T18:35:31.906Z,23.50
2019-04-19T18:38:00.970Z,23.00
2019-04-19T18:40:31.172Z,22.70
2019-04-19T18:43:16.059Z,22.30
2019-04-19T18:45:36.868Z,22.00
2019-04-19T18:48:03.270Z,21.70
2019-04-19T18:50:37.171Z,21.40
2019-04-19T18:53:14.078Z,21.20
2019-04-19T18:55:41.192Z,21.00
2019-04-19T18:58:06.615Z,20.90
2019-04-19T19:00:41.023Z,20.70
2019-04-19T19:03:09.280Z,20.60
2019-04-19T19:05:45.241Z,20.50
2019-04-19T19:08:18.584Z,20.40
2019-04-19T19:10:46.585Z,20.20
2019-04-19T19:13:12.246Z,20.20
2019-04-19T19:15:46.862Z,20.10
2019-04-19T19:18:13.020Z,20.00
2019-04-19T19:20:51.795Z,19.90
2019-04-19T19:23:25.648Z,19.80
2019-04-19T19:25:55.178Z,19.70
2019-04-19T19:28:20.023Z,19.60
2019-04-19T19:30:48.991Z,19.50
2019-04-19T19:33:22.270Z,19.40
2019-04-19T19:35:55.226Z,19.20
2019-04-19T19:38:26.201Z,19.00
2019-04-19T19:41:07.222Z,18.90
2019-04-19T19:43:41.120Z,18.80
2019-04-19T19:46:18.234Z,18.70
2019-04-19T19:48:55.478Z,18.60
2019-04-19T19:51:13.093Z,18.50
2019-04-19T19:53:50.529Z,18.40
2019-04-19T19:56:30.343Z,18.30
2019-04-19T19:58:36.647Z,18.30
2019-04-19T20:01:11.478Z,18.20
2019-04-19T20:03:37.645Z,18.20
2019-04-19T20:06:05.042Z,18.10
2019-04-19T20:08:39.014Z,18.00
2019-04-19T20:11:04.114Z,17.90
2019-04-19T20:13:41.096Z,17.80
2019-04-19T20:16:08.188Z,17.70
2019-04-19T20:18:39.617Z,17.70
2019-04-19T20:21:09.780Z,17.70
2019-04-19T20:23:54.142Z,17.60
2019-04-19T20:26:16.918Z,17.50
2019-04-19T20:28:39.587Z,17.40
2019-04-19T20:31:09.328Z,17.30
2019-04-19T20:33:47.785Z,17.30
2019-04-19T20:36:10.687Z,17.20
2019-04-19T20:38:48.073Z,17.20
2019-04-19T20:41:12.246Z,17.20
2019-04-19T20:43:56.335Z,17.10
2019-04-19T20:46:17.415Z,17.00
2019-04-19T20:48:45.887Z,16.90
2019-04-19T20:51:33.544Z,16.80
2019-04-19T20:54:00.421Z,16.70
2019-04-19T20:58:59.638Z,16.60
2019-04-19T21:01:28.796Z,16.50
2019-04-19T21:04:01.645Z,16.50
2019-04-19T21:06:33.191Z,16.50
2019-04-19T21:09:01.271Z,16.40
2019-04-19T21:11:38.337Z,16.40
2019-04-19T21:14:03.888Z,16.40
2019-04-19T21:16:35.382Z,16.40
2019-04-19T21:19:07.942Z,16.40
2019-04-19T21:21:41.038Z,16.40
2019-04-19T21:24:10.666Z,16.40
2019-04-19T21:26:39.542Z,16.40
2019-04-19T21:29:13.893Z,16.30
2019-04-19T21:31:45.915Z,16.30
2019-04-19T21:34:12.546Z,16.30
2019-04-19T21:36:50.298Z,16.30
2019-04-19T21:39:15.457Z,16.30
2019-04-19T21:41:45.838Z,16.30
2019-04-19T21:44:19.505Z,16.20
2019-04-19T21:46:46.229Z,16.20
2019-04-19T21:49:19.839Z,16.20
2019-04-19T21:51:48.200Z,16.20
2019-04-19T21:54:18.750Z,16.20
2019-04-19T21:56:52.636Z,16.20
2019-04-19T21:59:22.544Z,16.20
2019-04-19T22:01:51.315Z,16.40
2019-04-19T22:04:21.327Z,16.50
2019-04-19T22:06:57.786Z,16.60
2019-04-19T22:09:24.160Z,16.70
2019-04-19T22:11:54.241Z,16.80
2019-04-19T22:14:29.322Z,16.90
2019-04-19T22:16:56.659Z,17.00
2019-04-19T22:19:30.225Z,17.10
2019-04-19T22:21:58.603Z,17.20
2019-04-19T22:24:33.665Z,17.30
2019-04-19T22:26:59.634Z,17.30
2019-04-19T22:29:31.429Z,17.30
2019-04-19T22:32:05.700Z,17.40
2019-04-19T22:34:32.632Z,17.40
2019-04-19T22:37:03.555Z,17.40
2019-04-19T22:39:33.938Z,17.40
2019-04-19T22:42:04.487Z,17.40
2019-04-19T22:44:34.606Z,17.40
2019-04-19T22:47:04.016Z,17.40
2019-04-19T22:49:38.807Z,17.40
2019-04-19T22:52:04.777Z,17.40
2019-04-19T22:54:34.964Z,17.40
2019-04-19T22:57:13.583Z,17.40
2019-04-19T22:59:37.770Z,17.40
2019-04-19T23:02:16.565Z,17.40
2019-04-19T23:04:49.196Z,17.40
2019-04-19T23:07:16.986Z,17.40
2019-04-19T23:09:46.453Z,17.40
2019-04-19T23:12:16.867Z,17.40
2019-04-19T23:14:50.543Z,17.40
2019-04-19T23:17:28.077Z,17.40
2019-04-19T23:19:55.409Z,17.30
2019-04-19T23:22:31.022Z,17.30
2019-04-19T23:24:59.688Z,17.30
2019-04-19T23:27:34.635Z,17.30
2019-04-19T23:30:01.542Z,17.30
2019-04-19T23:32:32.106Z,17.30
2019-04-19T23:35:00.135Z,17.30
2019-04-19T23:37:30.334Z,17.30
2019-04-19T23:39:59.591Z,17.20
2019-04-19T23:42:31.122Z,17.20
2019-04-19T23:45:02.518Z,17.30
2019-04-19T23:47:37.780Z,17.20
2019-04-19T23:50:02.287Z,17.20
2019-04-19T23:52:32.983Z,17.20
2019-04-19T23:55:02.474Z,17.20
2019-04-19T23:57:39.594Z,17.20
